createdAt,value
2022-11-29T00:00:58.688Z,26.85
2022-11-29T00:03:26.453Z,29.55
2022-11-29T00:05:53.999Z,15.00
2022-11-29T00:08:21.324Z,13.52
2022-11-29T00:10:48.628Z,17.02
2022-11-29T00:13:17.291Z,10.95
2022-11-29T00:15:44.459Z,13.10
2022-11-29T00:18:11.554Z,32.60
2022-11-29T00:20:39.535Z,21.15
2022-11-29T00:23:06.914Z,22.75
2022-11-29T00:25:34.155Z,24.88
2022-11-29T00:28:03.264Z,22.83
2022-11-29T00:30:30.667Z,24.70
2022-11-29T00:32:58.178Z,24.20
2022-11-29T00:35:25.315Z,28.20
2022-11-29T00:37:52.482Z,25.45
2022-11-29T00:40:19.642Z,25.73
2022-11-29T00:42:46.872Z,26.02
2022-11-29T00:45:15.971Z,26.23
2022-11-29T00:47:43.956Z,27.50
2022-11-29T00:50:11.572Z,27.67
2022-11-29T00:52:38.679Z,27.30
2022-11-29T00:55:06.216Z,28.73
2022-11-29T00:57:33.458Z,28.95
2022-11-29T01:00:00.806Z,28.83
2022-11-29T01:02:28.080Z,30.05
2022-11-29T01:04:55.360Z,30.27
2022-11-29T01:07:22.445Z,31.85
2022-11-29T01:09:49.709Z,30.45
2022-11-29T01:12:16.887Z,28.25
2022-11-29T01:14:44.264Z,28.48
2022-11-29T01:17:11.474Z,28.52
2022-11-29T01:19:39.198Z,28.38
2022-11-29T01:22:06.345Z,28.10
2022-11-29T01:24:33.540Z,27.30
2022-11-29T01:27:00.545Z,27.50
2022-11-29T01:29:27.698Z,28.00
2022-11-29T01:31:54.804Z,30.60
2022-11-29T01:34:21.958Z,31.85
2022-11-29T01:36:49.141Z,33.40
2022-11-29T01:39:16.327Z,31.55
2022-11-29T01:41:43.485Z,32.55
2022-11-29T01:44:13.703Z,30.85
2022-11-29T01:46:42.506Z,30.17
2022-11-29T01:49:29.829Z,28.58
2022-11-29T01:52:08.356Z,28.85
2022-11-29T01:54:37.321Z,26.63
2022-11-29T01:57:05.986Z,25.02
2022-11-29T01:59:33.654Z,24.98
2022-11-29T02:02:04.828Z,26.48
2022-11-29T02:04:33.038Z,25.27
2022-11-29T02:07:00.284Z,22.13
2022-11-29T02:09:27.403Z,24.73
2022-11-29T02:11:57.685Z,21.80
2022-11-29T02:14:34.266Z,23.25
2022-11-29T02:17:04.499Z,22.33
2022-11-29T02:19:55.014Z,23.48
2022-11-29T02:22:26.760Z,22.27
2022-11-29T02:25:09.021Z,22.75
2022-11-29T02:27:54.750Z,21.15
2022-11-29T02:30:21.756Z,22.40
2022-11-29T02:33:07.392Z,20.63
2022-11-29T02:35:37.415Z,17.73
2022-11-29T02:38:04.481Z,18.02
2022-11-29T02:40:34.660Z,16.70
2022-11-29T02:43:09.591Z,14.93
2022-11-29T02:45:36.746Z,15.32
2022-11-29T02:48:28.991Z,14.90
2022-11-29T02:51:04.746Z,14.07
2022-11-29T02:55:58.874Z,13.50
2022-11-29T02:58:25.904Z,13.38
2022-11-29T03:00:59.020Z,13.35
2022-11-29T03:03:36.952Z,14.10
2022-11-29T03:06:07.286Z,13.63
2022-11-29T03:08:41.205Z,13.43
2022-11-29T03:11:27.188Z,14.50
2022-11-29T03:14:02.048Z,14.70
2022-11-29T03:16:39.709Z,15.23
2022-11-29T03:19:09.775Z,15.00
2022-11-29T03:21:55.234Z,15.60
2022-11-29T03:24:42.740Z,16.10
2022-11-29T03:27:12.830Z,17.35
2022-11-29T03:29:48.819Z,16.48
2022-11-29T03:32:30.717Z,17.77
2022-11-29T03:35:12.861Z,17.67
2022-11-29T03:37:50.649Z,18.77
2022-11-29T03:40:20.413Z,18.70
2022-11-29T03:42:57.028Z,17.48
2022-11-29T03:45:26.212Z,17.83
2022-11-29T03:48:08.446Z,16.88
2022-11-29T03:50:38.349Z,17.15
2022-11-29T03:53:14.694Z,19.05
2022-11-29T03:55:55.478Z,16.80
2022-11-29T03:58:22.658Z,17.25
2022-11-29T04:00:49.801Z,17.05
2022-11-29T04:03:19.704Z,18.10
2022-11-29T04:06:03.990Z,18.38
2022-11-29T04:08:48.632Z,17.48
2022-11-29T04:11:21.484Z,17.75
2022-11-29T04:14:03.663Z,17.38
2022-11-29T04:16:32.059Z,16.20
2022-11-29T04:19:05.246Z,16.60
2022-11-29T04:21:55.393Z,16.13
2022-11-29T04:24:31.718Z,15.40
2022-11-29T04:27:04.959Z,16.05
2022-11-29T04:29:43.673Z,18.13
2022-11-29T04:32:29.497Z,18.65
2022-11-29T04:35:09.611Z,18.92
2022-11-29T04:37:55.110Z,19.38
2022-11-29T04:40:25.425Z,20.17
2022-11-29T04:43:25.209Z,19.17
2022-11-29T04:45:52.397Z,19.17
2022-11-29T04:48:37.660Z,19.10
2022-11-29T04:51:12.709Z,20.50
2022-11-29T04:53:48.180Z,20.80
2022-11-29T04:56:24.449Z,20.00
2022-11-29T04:58:51.516Z,19.90
2022-11-29T05:01:21.684Z,20.50
2022-11-29T05:03:53.836Z,21.40
2022-11-29T05:06:27.902Z,20.90
2022-11-29T05:09:15.401Z,18.55
2022-11-29T05:12:00.173Z,19.60
2022-11-29T05:14:27.365Z,20.13
2022-11-29T05:17:01.191Z,20.45
2022-11-29T05:19:37.474Z,19.40
2022-11-29T05:22:08.074Z,17.60
2022-11-29T05:24:41.397Z,18.42
2022-11-29T05:27:11.656Z,19.25
2022-11-29T05:29:38.709Z,17.77
2022-11-29T05:32:19.583Z,16.73
2022-11-29T05:35:09.134Z,19.35
2022-11-29T05:37:43.956Z,20.95
2022-11-29T05:40:14.124Z,21.47
2022-11-29T05:42:51.054Z,22.00
2022-11-29T05:45:25.824Z,22.70
2022-11-29T05:47:52.905Z,22.95
2022-11-29T05:50:27.324Z,20.02
2022-11-29T05:53:16.766Z,22.20
2022-11-29T05:55:49.896Z,14.20
2022-11-29T05:58:37.300Z,13.38
2022-11-29T06:01:15.018Z,15.68
2022-11-29T06:03:51.448Z,16.95
2022-11-29T06:06:37.184Z,13.48
2022-11-29T06:09:31.260Z,18.73
2022-11-29T06:12:05.545Z,18.88
2022-11-29T06:14:57.354Z,22.17
2022-11-29T06:17:26.122Z,23.38
2022-11-29T06:19:59.789Z,24.27
2022-11-29T06:22:26.848Z,25.05
2022-11-29T06:25:17.009Z,23.77
2022-11-29T06:28:08.562Z,23.17
2022-11-29T06:30:54.692Z,22.30
2022-11-29T06:33:28.789Z,20.13
2022-11-29T06:36:12.432Z,18.70
2022-11-29T06:38:39.956Z,20.83
2022-11-29T06:41:07.159Z,21.83
2022-11-29T06:43:34.492Z,25.05
2022-11-29T06:46:10.279Z,22.67
2022-11-29T06:51:14.810Z,26.60
2022-11-29T06:53:53.905Z,29.10
2022-11-29T06:56:25.337Z,44.47
2022-11-29T06:59:00.393Z,55.10
2022-11-29T07:01:38.006Z,40.97
2022-11-29T07:04:18.677Z,34.38
2022-11-29T07:06:46.008Z,32.25
2022-11-29T07:09:18.582Z,35.63
2022-11-29T07:11:46.664Z,31.92
2022-11-29T07:14:14.431Z,32.13
2022-11-29T07:16:59.947Z,29.65
2022-11-29T07:19:36.411Z,24.80
2022-11-29T07:22:22.091Z,24.00
2022-11-29T07:24:52.313Z,14.70
2022-11-29T07:27:21.558Z,22.10
2022-11-29T07:30:11.312Z,24.38
2022-11-29T07:33:00.528Z,25.20
2022-11-29T07:35:32.909Z,24.20
2022-11-29T07:38:11.981Z,21.88
2022-11-29T07:40:51.496Z,20.60
2022-11-29T07:43:25.040Z,13.35
2022-11-29T07:45:52.436Z,18.50
2022-11-29T07:48:19.680Z,19.88
2022-11-29T07:50:46.978Z,20.67
2022-11-29T07:53:17.947Z,19.58
2022-11-29T07:55:48.307Z,22.02
2022-11-29T07:58:16.784Z,21.25
2022-11-29T08:00:44.417Z,21.27
2022-11-29T08:03:12.028Z,19.98
2022-11-29T08:05:39.643Z,18.85
2022-11-29T08:08:07.381Z,17.13
2022-11-29T08:10:35.901Z,15.32
2022-11-29T08:13:03.307Z,16.42
2022-11-29T08:15:30.544Z,16.10
2022-11-29T08:17:57.763Z,15.52
2022-11-29T08:20:25.064Z,16.73
2022-11-29T08:22:56.026Z,10.57
2022-11-29T08:25:24.312Z,7.53
2022-11-29T08:27:52.005Z,11.15
2022-11-29T08:30:22.475Z,6.30
2022-11-29T08:32:51.689Z,7.07
2022-11-29T08:35:20.427Z,3.88
2022-11-29T08:37:47.633Z,3.80
2022-11-29T08:40:15.006Z,3.92
2022-11-29T08:42:42.339Z,3.60
2022-11-29T08:45:09.929Z,3.95
2022-11-29T08:47:37.839Z,4.88
2022-11-29T08:50:08.207Z,4.30
2022-11-29T08:52:54.983Z,4.95
2022-11-29T08:55:23.221Z,4.38
2022-11-29T08:57:51.189Z,4.80
2022-11-29T09:00:19.257Z,5.93
2022-11-29T09:02:46.427Z,7.80
2022-11-29T09:05:13.824Z,25.58
2022-11-29T09:07:41.131Z,8.32
2022-11-29T09:10:09.576Z,10.93
2022-11-29T09:12:37.328Z,4.95
2022-11-29T09:15:05.749Z,4.55
2022-11-29T09:17:33.052Z,5.97
2022-11-29T09:20:00.368Z,3.60
2022-11-29T09:22:27.624Z,4.40
2022-11-29T09:24:54.821Z,3.40
2022-11-29T09:27:22.076Z,3.45
2022-11-29T09:29:49.273Z,3.28
2022-11-29T09:32:16.845Z,3.58
2022-11-29T09:34:44.415Z,3.50
2022-11-29T09:37:11.882Z,3.50
2022-11-29T09:39:40.523Z,3.85
2022-11-29T09:42:18.830Z,3.63
2022-11-29T09:45:02.014Z,4.50
2022-11-29T09:47:45.670Z,3.92
2022-11-29T09:50:19.104Z,3.17
2022-11-29T09:52:50.443Z,4.00
2022-11-29T09:55:38.639Z,3.30
2022-11-29T09:58:08.107Z,3.53
2022-11-29T10:00:38.666Z,3.17
2022-11-29T10:03:21.066Z,3.33
2022-11-29T10:05:50.652Z,2.90
2022-11-29T10:08:29.866Z,4.22
2022-11-29T10:10:59.172Z,3.55
2022-11-29T10:13:33.014Z,3.40
2022-11-29T10:16:06.489Z,3.30
2022-11-29T10:18:38.843Z,3.50
2022-11-29T10:21:18.459Z,4.43
2022-11-29T10:23:51.080Z,3.33
2022-11-29T10:26:18.466Z,4.95
2022-11-29T10:28:47.788Z,3.35
2022-11-29T10:31:27.125Z,2.63
2022-11-29T10:33:55.331Z,3.53
2022-11-29T10:36:33.262Z,2.85
2022-11-29T10:39:07.682Z,3.25
2022-11-29T10:41:37.229Z,2.72
2022-11-29T10:44:04.505Z,2.83
2022-11-29T10:46:36.406Z,3.28
2022-11-29T10:49:05.811Z,4.07
2022-11-29T10:51:34.092Z,3.08
2022-11-29T10:54:19.919Z,3.22
2022-11-29T10:56:47.580Z,3.22
2022-11-29T10:59:26.312Z,3.20
2022-11-29T11:01:53.952Z,3.28
2022-11-29T11:04:33.865Z,3.00
2022-11-29T11:07:02.566Z,3.67
2022-11-29T11:09:29.745Z,4.07
2022-11-29T11:11:58.548Z,3.70
2022-11-29T11:14:37.855Z,3.40
2022-11-29T11:17:26.293Z,3.53
2022-11-29T11:20:02.373Z,3.47
2022-11-29T11:22:30.026Z,3.63
2022-11-29T11:25:01.537Z,3.95
2022-11-29T11:27:33.119Z,3.60
2022-11-29T11:30:01.608Z,4.50
2022-11-29T11:32:28.966Z,4.32
2022-11-29T11:34:59.185Z,4.28
2022-11-29T11:37:28.277Z,4.53
2022-11-29T11:39:57.731Z,4.20
2022-11-29T11:42:39.673Z,4.15
2022-11-29T11:45:09.681Z,4.22
2022-11-29T11:47:38.530Z,4.20
2022-11-29T11:50:12.966Z,4.25
2022-11-29T11:52:42.068Z,3.83
2022-11-29T11:55:21.295Z,4.30
2022-11-29T11:58:07.668Z,4.30
2022-11-29T12:01:03.870Z,5.38
2022-11-29T12:04:10.541Z,5.93
2022-11-29T12:06:37.811Z,6.30
2022-11-29T12:09:14.249Z,6.57
2022-11-29T12:11:49.322Z,7.25
2022-11-29T12:14:29.158Z,4.20
2022-11-29T12:17:02.667Z,9.13
2022-11-29T12:19:33.990Z,7.50
2022-11-29T12:22:03.565Z,5.15
2022-11-29T12:24:38.629Z,5.03
2022-11-29T12:27:06.458Z,6.60
2022-11-29T12:29:35.382Z,29.55
2022-11-29T12:32:21.264Z,44.53
2022-11-29T12:34:57.502Z,21.20
2022-11-29T12:37:36.775Z,9.82
2022-11-29T12:40:18.299Z,26.52
2022-11-29T12:42:59.627Z,26.02
2022-11-29T12:45:26.803Z,37.53
2022-11-29T12:48:19.832Z,37.50
2022-11-29T12:50:49.993Z,31.23
2022-11-29T12:53:25.494Z,24.65
2022-11-29T12:55:54.311Z,21.00
2022-11-29T12:58:21.441Z,20.88
2022-11-29T13:00:54.894Z,21.30
2022-11-29T13:03:31.256Z,21.45
2022-11-29T13:06:24.617Z,21.88
2022-11-29T13:08:51.663Z,19.80
2022-11-29T13:11:18.793Z,17.50
2022-11-29T13:13:47.748Z,18.13
2022-11-29T13:16:23.013Z,19.05
2022-11-29T13:19:09.715Z,19.52
2022-11-29T13:21:51.244Z,19.30
2022-11-29T13:24:27.322Z,19.45
2022-11-29T13:26:54.792Z,22.83
2022-11-29T13:29:22.243Z,21.92
2022-11-29T13:31:49.791Z,23.27
2022-11-29T13:34:27.759Z,21.67
2022-11-29T13:37:02.228Z,20.70
2022-11-29T13:39:48.023Z,18.80
2022-11-29T13:42:22.369Z,15.30
2022-11-29T13:44:55.716Z,15.57
2022-11-29T13:47:23.048Z,15.80
2022-11-29T13:50:03.881Z,14.55
2022-11-29T13:52:40.146Z,16.50
2022-11-29T13:55:14.392Z,16.50
2022-11-29T13:58:14.972Z,14.40
2022-11-29T14:00:49.107Z,13.90
2022-11-29T14:03:19.588Z,14.15
2022-11-29T14:06:10.455Z,14.88
2022-11-29T14:11:29.391Z,15.82
2022-11-29T14:14:05.850Z,15.52
2022-11-29T14:16:42.227Z,16.88
2022-11-29T14:19:09.299Z,18.38
2022-11-29T14:21:55.146Z,17.83
2022-11-29T14:24:42.524Z,17.77
2022-11-29T14:27:10.398Z,19.95
2022-11-29T14:29:49.825Z,19.02
2022-11-29T14:32:31.285Z,19.60
2022-11-29T14:35:04.501Z,20.20
2022-11-29T14:37:37.649Z,21.45
2022-11-29T14:40:13.794Z,21.33
2022-11-29T14:42:46.443Z,21.38
2022-11-29T14:45:27.624Z,22.02
2022-11-29T14:47:55.469Z,19.08
2022-11-29T14:50:33.423Z,22.25
2022-11-29T14:53:01.263Z,21.63
2022-11-29T14:55:30.233Z,21.58
2022-11-29T14:58:11.991Z,22.50
2022-11-29T15:00:48.227Z,23.67
2022-11-29T15:03:21.930Z,26.40
2022-11-29T15:05:58.319Z,27.15
2022-11-29T15:08:35.320Z,43.97
2022-11-29T15:11:04.545Z,26.23
2022-11-29T15:13:35.001Z,26.13
2022-11-29T15:16:20.787Z,22.98
2022-11-29T15:19:00.877Z,24.60
2022-11-29T15:21:37.209Z,23.05
2022-11-29T15:24:26.749Z,14.68
2022-11-29T15:27:00.088Z,10.43
2022-11-29T15:29:28.197Z,18.67
2022-11-29T15:31:56.808Z,10.80
2022-11-29T15:34:27.172Z,7.78
2022-11-29T15:36:54.410Z,19.17
2022-11-29T15:39:25.796Z,7.78
2022-11-29T15:41:52.932Z,5.82
2022-11-29T15:44:22.429Z,5.18
2022-11-29T15:46:49.549Z,6.70
2022-11-29T15:49:17.012Z,8.52
2022-11-29T15:51:45.869Z,7.40
2022-11-29T15:54:18.950Z,7.38
2022-11-29T15:56:49.186Z,5.95
2022-11-29T15:59:19.378Z,6.13
2022-11-29T16:01:47.149Z,10.65
2022-11-29T16:04:19.454Z,16.27
2022-11-29T16:06:47.604Z,25.92
2022-11-29T16:09:37.206Z,30.38
2022-11-29T16:12:04.606Z,34.30
2022-11-29T16:14:31.766Z,34.13
2022-11-29T16:17:01.034Z,29.65
2022-11-29T16:19:33.187Z,39.00
2022-11-29T16:22:01.862Z,49.78
2022-11-29T16:24:29.191Z,50.75
2022-11-29T16:26:56.410Z,55.60
2022-11-29T16:29:45.380Z,56.70
2022-11-29T16:32:14.116Z,52.30
2022-11-29T16:34:42.460Z,60.33
2022-11-29T16:37:21.515Z,64.13
2022-11-29T16:39:50.361Z,71.05
2022-11-29T16:42:24.887Z,81.15
2022-11-29T16:44:54.765Z,84.20
2022-11-29T16:47:22.982Z,63.58
2022-11-29T16:50:02.327Z,65.72
2022-11-29T16:52:30.541Z,66.70
2022-11-29T16:54:57.825Z,64.85
2022-11-29T16:57:25.542Z,71.20
2022-11-29T16:59:52.695Z,69.00
2022-11-29T17:02:20.380Z,69.65
2022-11-29T17:04:47.886Z,71.57
2022-11-29T17:07:18.309Z,69.22
2022-11-29T17:09:46.079Z,67.50
2022-11-29T17:12:13.931Z,67.25
2022-11-29T17:14:41.094Z,66.70
2022-11-29T17:17:08.351Z,64.90
2022-11-29T17:19:35.642Z,65.85
2022-11-29T17:22:03.697Z,65.60
2022-11-29T17:24:30.918Z,63.90
2022-11-29T17:26:58.129Z,63.88
2022-11-29T17:29:25.429Z,64.75
2022-11-29T17:31:53.636Z,66.70
2022-11-29T17:34:20.854Z,63.95
2022-11-29T17:36:48.203Z,67.63
2022-11-29T17:39:15.973Z,103.45
2022-11-29T17:41:43.148Z,62.85
2022-11-29T17:44:10.555Z,60.47
2022-11-29T17:46:38.863Z,54.80
2022-11-29T17:49:07.158Z,61.72
2022-11-29T17:51:52.142Z,61.30
2022-11-29T17:54:21.176Z,58.22
2022-11-29T17:56:48.484Z,65.13
2022-11-29T17:59:15.654Z,72.97
2022-11-29T18:01:42.970Z,77.70
2022-11-29T18:04:10.281Z,85.00
2022-11-29T18:06:38.681Z,86.72
2022-11-29T18:09:06.976Z,71.32
2022-11-29T18:11:45.001Z,77.50
2022-11-29T18:14:15.669Z,76.93
2022-11-29T18:16:44.019Z,75.93
2022-11-29T18:19:12.546Z,74.93
2022-11-29T18:21:41.366Z,75.15
2022-11-29T18:24:09.033Z,82.28
2022-11-29T18:26:36.907Z,90.25
2022-11-29T18:29:04.723Z,90.28
2022-11-29T18:31:33.238Z,86.10
2022-11-29T18:34:01.776Z,89.03
2022-11-29T18:36:30.528Z,85.53
2022-11-29T18:38:58.943Z,82.65
2022-11-29T18:41:26.773Z,95.63
2022-11-29T18:44:01.469Z,90.78
2022-11-29T18:46:36.788Z,86.00
2022-11-29T18:49:05.019Z,89.35
2022-11-29T18:51:32.474Z,76.22
2022-11-29T18:53:59.931Z,39.08
2022-11-29T18:56:28.688Z,49.42
2022-11-29T18:58:58.682Z,59.53
2022-11-29T19:01:27.062Z,48.60
2022-11-29T19:03:55.387Z,59.70
2022-11-29T19:06:23.947Z,52.53
2022-11-29T19:08:52.010Z,65.15
2022-11-29T19:11:20.172Z,67.60
2022-11-29T19:13:48.081Z,80.13
2022-11-29T19:16:17.585Z,76.35
2022-11-29T19:18:45.710Z,70.78
2022-11-29T19:21:20.003Z,91.90
2022-11-29T19:23:52.447Z,92.35
2022-11-29T19:26:20.193Z,106.40
2022-11-29T19:28:47.536Z,104.22
2022-11-29T19:31:15.831Z,100.25
2022-11-29T19:33:45.063Z,100.05
2022-11-29T19:36:16.047Z,100.25
2022-11-29T19:38:45.701Z,97.75
2022-11-29T19:41:18.505Z,98.53
2022-11-29T19:43:46.723Z,95.15
2022-11-29T19:46:14.949Z,103.82
2022-11-29T19:48:42.339Z,115.15
2022-11-29T19:51:10.841Z,111.72
2022-11-29T19:53:38.442Z,109.35
2022-11-29T19:56:10.912Z,94.28
2022-11-29T19:58:38.161Z,94.82
2022-11-29T20:01:09.256Z,98.90
2022-11-29T20:03:36.848Z,99.57
2022-11-29T20:06:04.079Z,97.97
2022-11-29T20:08:31.721Z,100.57
2022-11-29T20:11:18.359Z,97.50
2022-11-29T20:13:47.224Z,99.35
2022-11-29T20:16:16.058Z,98.75
2022-11-29T20:18:48.927Z,98.88
2022-11-29T20:21:23.580Z,95.13
2022-11-29T20:23:54.764Z,86.20
2022-11-29T20:26:21.957Z,77.97
2022-11-29T20:28:49.032Z,113.50
2022-11-29T20:31:21.604Z,84.20
2022-11-29T20:33:49.367Z,66.78
2022-11-29T20:36:26.552Z,75.28
2022-11-29T20:39:12.883Z,78.97
2022-11-29T20:41:49.885Z,88.25
2022-11-29T20:44:21.330Z,89.32
2022-11-29T20:46:48.568Z,91.57
2022-11-29T20:49:17.502Z,88.53
2022-11-29T20:52:05.706Z,83.25
2022-11-29T20:54:32.843Z,85.63
2022-11-29T20:57:00.065Z,87.55
2022-11-29T20:59:27.132Z,86.90
2022-11-29T21:01:54.709Z,84.35
2022-11-29T21:04:23.551Z,86.63
2022-11-29T21:06:51.161Z,86.95
2022-11-29T21:09:18.506Z,86.45
2022-11-29T21:11:45.970Z,82.20
2022-11-29T21:14:13.422Z,83.55
2022-11-29T21:16:41.152Z,79.97
2022-11-29T21:19:11.075Z,87.97
2022-11-29T21:21:42.304Z,86.63
2022-11-29T21:24:25.593Z,93.65
2022-11-29T21:26:52.938Z,90.00
2022-11-29T21:29:21.204Z,104.68
2022-11-29T21:31:49.996Z,104.78
2022-11-29T21:34:17.146Z,110.28
2022-11-29T21:36:44.781Z,104.07
2022-11-29T21:39:14.034Z,98.18
2022-11-29T21:41:41.141Z,94.85
2022-11-29T21:44:08.795Z,61.38
2022-11-29T21:46:36.348Z,72.10
2022-11-29T21:49:04.299Z,53.78
2022-11-29T21:51:31.315Z,76.20
2022-11-29T21:53:58.637Z,20.13
2022-11-29T21:56:25.717Z,21.70
2022-11-29T21:58:52.976Z,12.35
2022-11-29T22:01:20.384Z,8.48
2022-11-29T22:03:47.858Z,20.25
2022-11-29T22:06:19.035Z,18.30
2022-11-29T22:08:46.782Z,6.05
2022-11-29T22:11:15.723Z,6.20
2022-11-29T22:14:02.083Z,14.20
2022-11-29T22:16:29.950Z,4.80
2022-11-29T22:18:57.188Z,5.32
2022-11-29T22:21:24.358Z,3.13
2022-11-29T22:23:52.438Z,2.50
2022-11-29T22:26:19.545Z,2.90
2022-11-29T22:28:47.632Z,3.13
2022-11-29T22:31:14.809Z,3.10
2022-11-29T22:33:42.094Z,2.85
2022-11-29T22:36:10.822Z,3.33
2022-11-29T22:38:38.438Z,3.08
2022-11-29T22:41:12.545Z,3.20
2022-11-29T22:43:40.475Z,2.97
2022-11-29T22:46:08.849Z,3.22
2022-11-29T22:48:39.077Z,3.33
2022-11-29T22:51:17.010Z,2.85
2022-11-29T22:53:52.581Z,3.20
2022-11-29T22:58:47.041Z,5.78
2022-11-29T23:01:15.553Z,5.55
2022-11-29T23:03:43.862Z,4.80
2022-11-29T23:06:12.739Z,15.10
2022-11-29T23:08:40.389Z,14.35
2022-11-29T23:11:09.549Z,6.78
2022-11-29T23:13:38.050Z,12.35
2022-11-29T23:16:06.099Z,3.33
2022-11-29T23:18:34.243Z,3.30
2022-11-29T23:21:08.773Z,3.05
2022-11-29T23:23:36.004Z,2.97
2022-11-29T23:26:03.368Z,2.80
2022-11-29T23:28:30.574Z,2.65
2022-11-29T23:30:58.859Z,2.67
2022-11-29T23:33:26.543Z,2.95
2022-11-29T23:35:59.779Z,3.17
2022-11-29T23:38:26.964Z,2.78
2022-11-29T23:40:54.186Z,3.10
2022-11-29T23:43:22.216Z,2.78
2022-11-29T23:45:49.485Z,2.28
2022-11-29T23:48:16.820Z,2.25
2022-11-29T23:50:44.239Z,2.28
2022-11-29T23:53:15.052Z,2.30
2022-11-29T23:55:42.573Z,2.38
2022-11-29T23:58:10.453Z,2.25
